createdAt,value
2023-02-02T00:01:52.458Z,99732.79
2023-02-02T00:04:25.689Z,99732.88
2023-02-02T00:06:54.520Z,99731.33
2023-02-02T00:09:23.347Z,99728.35
2023-02-02T00:11:51.791Z,99728.50
2023-02-02T00:14:20.486Z,99729.27
2023-02-02T00:16:50.415Z,99729.70
2023-02-02T00:19:21.614Z,99730.89
2023-02-02T00:21:50.037Z,99733.06
2023-02-02T00:24:19.261Z,99731.27
2023-02-02T00:26:50.036Z,99731.85
2023-02-02T00:29:21.107Z,99735.55
2023-02-02T00:31:49.815Z,99733.96
2023-02-02T00:34:19.409Z,99730.56
2023-02-02T00:36:48.931Z,99729.94
2023-02-02T00:39:22.898Z,99733.80
2023-02-02T00:41:51.588Z,99733.04
2023-02-02T00:44:41.684Z,99734.73
2023-02-02T00:47:10.316Z,99731.14
2023-02-02T00:49:38.813Z,99732.70
2023-02-02T00:52:07.852Z,99734.15
2023-02-02T00:54:38.075Z,99734.15
2023-02-02T00:57:06.847Z,99736.68
2023-02-02T00:59:35.845Z,99735.71
2023-02-02T01:02:04.360Z,99735.30
2023-02-02T01:04:33.707Z,99730.95
2023-02-02T01:07:02.105Z,99732.09
2023-02-02T01:09:32.900Z,99728.08
2023-02-02T01:12:06.340Z,99726.99
2023-02-02T01:14:36.705Z,99724.77
2023-02-02T01:17:05.706Z,99723.27
2023-02-02T01:19:34.187Z,99724.75
2023-02-02T01:22:03.599Z,99721.41
2023-02-02T01:24:32.427Z,99724.36
2023-02-02T01:27:01.907Z,99725.31
2023-02-02T01:29:31.028Z,99726.73
2023-02-02T01:31:59.668Z,99725.95
2023-02-02T01:34:28.321Z,99733.02
2023-02-02T01:36:56.921Z,99734.67
2023-02-02T01:39:25.674Z,99737.44
2023-02-02T01:41:54.672Z,99739.48
2023-02-02T01:45:00.879Z,99744.30
2023-02-02T01:47:37.421Z,99742.09
2023-02-02T01:50:06.500Z,99746.36
2023-02-02T01:52:36.001Z,99744.38
2023-02-02T01:55:08.710Z,99750.40
2023-02-02T01:57:41.214Z,99746.36
2023-02-02T02:00:12.075Z,99744.80
2023-02-02T02:02:48.468Z,99738.84
2023-02-02T02:05:33.819Z,99737.85
2023-02-02T02:08:13.890Z,99737.17
2023-02-02T02:10:42.371Z,99734.45
2023-02-02T02:13:11.264Z,99737.95
2023-02-02T02:16:18.641Z,99741.16
2023-02-02T02:19:14.853Z,99740.97
2023-02-02T02:22:08.368Z,99743.16
2023-02-02T02:25:25.936Z,99745.35
2023-02-02T02:28:19.765Z,99751.34
2023-02-02T02:30:57.473Z,99752.64
2023-02-02T02:33:43.154Z,99758.85
2023-02-02T02:36:20.468Z,99759.73
2023-02-02T02:39:12.896Z,99762.81
2023-02-02T02:41:46.938Z,99758.28
2023-02-02T02:44:16.502Z,99758.91
2023-02-02T02:46:45.010Z,99761.80
2023-02-02T02:49:13.670Z,99762.84
2023-02-02T02:51:49.233Z,99764.57
2023-02-02T02:54:41.091Z,99765.27
2023-02-02T02:57:25.328Z,99766.00
2023-02-02T03:00:18.793Z,99764.63
2023-02-02T03:03:00.039Z,99763.77
2023-02-02T03:05:43.639Z,99762.48
2023-02-02T03:08:14.104Z,99764.66
2023-02-02T03:10:43.673Z,99767.13
2023-02-02T03:13:12.776Z,99771.49
2023-02-02T03:15:42.636Z,99770.66
2023-02-02T03:18:14.579Z,99770.59
2023-02-02T03:20:43.681Z,99775.58
2023-02-02T03:23:12.578Z,99776.58
2023-02-02T03:25:40.914Z,99779.76
2023-02-02T03:28:09.731Z,99778.90
2023-02-02T03:30:39.086Z,99782.76
2023-02-02T03:33:07.621Z,99788.86
2023-02-02T03:35:36.653Z,99789.48
2023-02-02T03:38:05.604Z,99791.21
2023-02-02T03:40:34.261Z,99789.96
2023-02-02T03:43:03.387Z,99787.54
2023-02-02T03:45:32.431Z,99792.13
2023-02-02T03:48:01.066Z,99794.96
2023-02-02T03:50:29.545Z,99797.69
2023-02-02T03:52:58.129Z,99800.80
2023-02-02T03:55:26.797Z,99805.11
2023-02-02T03:57:55.313Z,99811.97
2023-02-02T04:00:23.786Z,99813.05
2023-02-02T04:02:52.184Z,99816.14
2023-02-02T04:05:20.657Z,99817.74
2023-02-02T04:07:49.592Z,99816.05
2023-02-02T04:10:18.777Z,99815.73
2023-02-02T04:12:47.620Z,99813.69
2023-02-02T04:15:16.766Z,99816.64
2023-02-02T04:17:45.299Z,99815.64
2023-02-02T04:20:14.059Z,99810.90
2023-02-02T04:22:42.583Z,99809.09
2023-02-02T04:25:11.261Z,99810.23
2023-02-02T04:27:40.041Z,99815.07
2023-02-02T04:30:09.517Z,99810.70
2023-02-02T04:32:38.031Z,99813.38
2023-02-02T04:35:07.146Z,99818.41
2023-02-02T04:37:35.519Z,99824.02
2023-02-02T04:40:04.912Z,99829.11
2023-02-02T04:42:34.718Z,99829.45
2023-02-02T04:45:03.514Z,99830.27
2023-02-02T04:47:31.990Z,99830.20
2023-02-02T04:50:00.551Z,99832.48
2023-02-02T04:52:29.573Z,99832.30
2023-02-02T04:54:59.172Z,99834.77
2023-02-02T04:57:27.766Z,99837.03
2023-02-02T04:59:56.831Z,99837.35
2023-02-02T05:02:25.437Z,99837.94
2023-02-02T05:04:53.916Z,99841.72
2023-02-02T05:07:22.399Z,99846.85
2023-02-02T05:09:51.739Z,99854.11
2023-02-02T05:12:23.162Z,99857.23
2023-02-02T05:14:53.189Z,99855.18
2023-02-02T05:17:21.649Z,99862.91
2023-02-02T05:19:50.216Z,99868.89
2023-02-02T05:22:18.817Z,99866.95
2023-02-02T05:24:47.605Z,99867.36
2023-02-02T05:27:16.187Z,99863.60
2023-02-02T05:29:44.675Z,99867.42
2023-02-02T05:32:13.070Z,99871.33
2023-02-02T05:34:43.186Z,99872.30
2023-02-02T05:37:11.649Z,99872.13
2023-02-02T05:39:40.858Z,99868.84
2023-02-02T05:42:09.693Z,99872.00
2023-02-02T05:44:39.798Z,99874.57
2023-02-02T05:47:09.523Z,99878.66
2023-02-02T05:49:37.817Z,99878.15
2023-02-02T05:52:06.542Z,99878.84
2023-02-02T05:54:35.322Z,99876.84
2023-02-02T05:57:03.902Z,99881.36
2023-02-02T05:59:34.741Z,99883.05
2023-02-02T06:02:03.144Z,99880.92
2023-02-02T06:04:31.600Z,99884.41
2023-02-02T06:07:00.403Z,99884.59
2023-02-02T06:09:29.175Z,99885.14
2023-02-02T06:11:57.755Z,99882.52
2023-02-02T06:14:26.653Z,99885.29
2023-02-02T06:16:55.233Z,99882.87
2023-02-02T06:19:23.860Z,99883.92
2023-02-02T06:21:52.350Z,99886.90
2023-02-02T06:24:21.400Z,99885.51
2023-02-02T06:26:50.239Z,99886.16
2023-02-02T06:29:18.895Z,99890.97
2023-02-02T06:31:47.645Z,99892.59
2023-02-02T06:34:16.337Z,99895.25
2023-02-02T06:36:45.139Z,99894.06
2023-02-02T06:39:13.716Z,99894.59
2023-02-02T06:41:42.335Z,99892.71
2023-02-02T06:44:11.090Z,99888.38
2023-02-02T06:46:39.733Z,99890.84
2023-02-02T06:49:08.732Z,99886.81
2023-02-02T06:51:37.187Z,99892.13
2023-02-02T06:54:05.742Z,99892.94
2023-02-02T06:56:35.141Z,99888.95
2023-02-02T06:59:03.740Z,99891.48
2023-02-02T07:01:32.824Z,99887.05
2023-02-02T07:04:01.542Z,99882.39
2023-02-02T07:06:30.399Z,99879.24
2023-02-02T07:09:02.918Z,99880.71
2023-02-02T07:11:34.762Z,99878.94
2023-02-02T07:14:07.379Z,99875.52
2023-02-02T07:16:36.189Z,99878.06
2023-02-02T07:19:04.808Z,99873.88
2023-02-02T07:21:36.562Z,99872.17
2023-02-02T07:24:06.043Z,99873.09
2023-02-02T07:26:36.169Z,99871.83
2023-02-02T07:29:04.794Z,99869.36
2023-02-02T07:31:36.779Z,99871.23
2023-02-02T07:34:05.838Z,99873.77
2023-02-02T07:36:34.185Z,99874.98
2023-02-02T07:39:05.094Z,99875.30
2023-02-02T07:41:36.690Z,99874.98
2023-02-02T07:44:05.591Z,99875.54
2023-02-02T07:46:36.176Z,99870.42
2023-02-02T07:49:06.540Z,99869.36
2023-02-02T07:51:37.959Z,99866.21
2023-02-02T07:54:07.388Z,99868.94
2023-02-02T07:56:37.595Z,99869.98
2023-02-02T07:59:06.497Z,99870.55
2023-02-02T08:01:35.311Z,99869.86
2023-02-02T08:04:04.698Z,99870.48
2023-02-02T08:06:36.048Z,99873.03
2023-02-02T08:09:07.809Z,99871.92
2023-02-02T08:11:37.313Z,99874.54
2023-02-02T08:14:06.406Z,99872.86
2023-02-02T08:16:35.360Z,99877.46
2023-02-02T08:19:04.078Z,99882.55
2023-02-02T08:21:34.309Z,99883.83
2023-02-02T08:24:05.299Z,99884.17
2023-02-02T08:26:35.441Z,99883.30
2023-02-02T08:29:06.335Z,99881.38
2023-02-02T08:31:41.844Z,99879.88
2023-02-02T08:34:11.306Z,99879.30
2023-02-02T08:36:40.127Z,99880.84
2023-02-02T08:39:12.190Z,99884.04
2023-02-02T08:41:40.892Z,99881.39
2023-02-02T08:44:11.620Z,99878.23
2023-02-02T08:46:41.141Z,99871.48
2023-02-02T08:49:11.683Z,99873.12
2023-02-02T08:51:41.199Z,99866.90
2023-02-02T08:54:09.745Z,99868.53
2023-02-02T08:56:38.961Z,99869.94
2023-02-02T08:59:07.938Z,99871.08
2023-02-02T09:01:36.949Z,99871.29
2023-02-02T09:04:07.582Z,99870.55
2023-02-02T09:06:40.652Z,99870.20
2023-02-02T09:09:13.216Z,99865.52
2023-02-02T09:11:42.703Z,99863.29
2023-02-02T09:14:13.722Z,99861.14
2023-02-02T09:16:42.606Z,99861.48
2023-02-02T09:19:11.758Z,99861.56
2023-02-02T09:21:40.726Z,99858.92
2023-02-02T09:24:10.973Z,99858.05
2023-02-02T09:26:40.626Z,99861.35
2023-02-02T09:29:12.338Z,99862.17
2023-02-02T09:31:40.818Z,99858.40
2023-02-02T09:34:11.418Z,99858.42
2023-02-02T09:36:40.353Z,99857.70
2023-02-02T09:39:10.169Z,99856.88
2023-02-02T09:41:39.005Z,99859.73
2023-02-02T09:44:28.921Z,99861.32
2023-02-02T09:47:10.104Z,99857.00
2023-02-02T09:49:57.777Z,99855.71
2023-02-02T09:52:27.795Z,99856.86
2023-02-02T09:55:23.495Z,99860.08
2023-02-02T09:57:54.409Z,99854.55
2023-02-02T10:00:34.035Z,99852.41
2023-02-02T10:03:07.616Z,99849.85
2023-02-02T10:06:18.528Z,99852.54
2023-02-02T10:08:50.520Z,99853.42
2023-02-02T10:11:18.897Z,99854.18
2023-02-02T10:13:49.121Z,99853.59
2023-02-02T10:16:18.215Z,99853.07
2023-02-02T10:18:56.013Z,99852.01
2023-02-02T10:21:44.341Z,99849.30
2023-02-02T10:24:26.571Z,99847.52
2023-02-02T10:27:04.560Z,99844.23
2023-02-02T10:29:48.380Z,99841.39
2023-02-02T10:32:26.183Z,99842.52
2023-02-02T10:35:16.569Z,99843.84
2023-02-02T10:37:57.135Z,99838.78
2023-02-02T10:40:38.775Z,99835.94
2023-02-02T10:43:44.719Z,99839.52
2023-02-02T10:46:17.940Z,99835.94
2023-02-02T10:48:47.441Z,99834.79
2023-02-02T10:51:26.295Z,99834.38
2023-02-02T10:53:59.071Z,99834.20
2023-02-02T10:56:36.582Z,99834.36
2023-02-02T10:59:07.482Z,99836.72
2023-02-02T11:04:41.442Z,99831.51
2023-02-02T11:07:11.106Z,99833.94
2023-02-02T11:09:40.834Z,99832.09
2023-02-02T11:12:31.513Z,99833.23
2023-02-02T11:15:05.259Z,99834.23
2023-02-02T11:17:35.510Z,99839.06
2023-02-02T11:20:21.940Z,99838.36
2023-02-02T11:22:50.522Z,99838.05
2023-02-02T11:25:33.967Z,99838.14
2023-02-02T11:28:11.805Z,99838.58
2023-02-02T11:30:40.240Z,99838.35
2023-02-02T11:33:28.614Z,99837.52
2023-02-02T11:36:01.546Z,99842.98
2023-02-02T11:38:31.060Z,99839.41
2023-02-02T11:41:04.469Z,99839.66
2023-02-02T11:43:41.691Z,99839.67
2023-02-02T11:46:28.798Z,99841.45
2023-02-02T11:49:12.964Z,99841.48
2023-02-02T11:51:41.378Z,99841.11
2023-02-02T11:54:22.557Z,99843.91
2023-02-02T11:56:52.585Z,99847.28
2023-02-02T12:00:06.960Z,99853.09
2023-02-02T12:02:35.975Z,99855.88
2023-02-02T12:05:11.058Z,99858.90
2023-02-02T12:07:39.638Z,99868.54
2023-02-02T12:10:18.691Z,99870.73
2023-02-02T12:12:56.382Z,99870.59
2023-02-02T12:15:58.144Z,99871.75
2023-02-02T12:18:41.372Z,99869.92
2023-02-02T12:21:25.050Z,99874.67
2023-02-02T12:23:55.353Z,99874.60
2023-02-02T12:26:28.442Z,99878.67
2023-02-02T12:29:00.682Z,99881.98
2023-02-02T12:32:11.444Z,99887.19
2023-02-02T12:34:55.078Z,99892.70
2023-02-02T12:37:47.025Z,99892.95
2023-02-02T12:40:25.047Z,99894.29
2023-02-02T12:43:12.646Z,99897.27
2023-02-02T12:45:41.295Z,99901.00
2023-02-02T12:48:23.842Z,99909.80
2023-02-02T12:51:30.274Z,99910.61
2023-02-02T12:54:34.922Z,99919.18
2023-02-02T12:57:42.745Z,99918.25
2023-02-02T13:00:27.053Z,99917.59
2023-02-02T13:03:05.824Z,99915.66
2023-02-02T13:05:55.976Z,99919.80
2023-02-02T13:08:41.902Z,99922.11
2023-02-02T13:11:30.171Z,99924.14
2023-02-02T13:14:11.959Z,99923.97
2023-02-02T13:16:44.499Z,99930.44
2023-02-02T13:19:35.544Z,99928.74
2023-02-02T13:22:05.168Z,99927.14
2023-02-02T13:24:36.440Z,99928.83
2023-02-02T13:27:06.308Z,99934.96
2023-02-02T13:29:47.716Z,99937.58
2023-02-02T13:32:36.491Z,99936.84
2023-02-02T13:35:18.447Z,99940.56
2023-02-02T13:37:49.983Z,99940.86
2023-02-02T13:40:44.797Z,99939.55
2023-02-02T13:43:35.933Z,99941.92
2023-02-02T13:46:25.439Z,99945.02
2023-02-02T13:48:56.520Z,99946.50
2023-02-02T13:52:16.097Z,99947.04
2023-02-02T13:55:09.766Z,99944.91
2023-02-02T13:57:54.408Z,99947.36
2023-02-02T14:00:31.045Z,99950.65
2023-02-02T14:03:03.424Z,99953.81
2023-02-02T14:05:37.039Z,99958.19
2023-02-02T14:08:12.010Z,99961.64
2023-02-02T14:14:00.491Z,99966.60
2023-02-02T14:16:32.011Z,99967.77
2023-02-02T14:19:01.103Z,99968.27
2023-02-02T14:21:32.878Z,99970.23
2023-02-02T14:24:03.306Z,99974.27
2023-02-02T14:26:50.149Z,99972.96
2023-02-02T14:29:35.040Z,99977.39
2023-02-02T14:32:07.160Z,99982.67
2023-02-02T14:34:42.246Z,99980.38
2023-02-02T14:37:22.929Z,99982.51
2023-02-02T14:40:12.735Z,99986.08
2023-02-02T14:43:24.973Z,99985.45
2023-02-02T14:46:15.922Z,99990.40
2023-02-02T14:48:47.616Z,99993.91
2023-02-02T14:51:16.029Z,99997.99
2023-02-02T14:53:49.667Z,100001.48
2023-02-02T14:56:18.220Z,100002.58
2023-02-02T14:58:53.431Z,100000.84
2023-02-02T15:01:27.747Z,100002.98
2023-02-02T15:04:15.973Z,100008.58
2023-02-02T15:06:44.347Z,100009.93
2023-02-02T15:09:27.965Z,100013.33
2023-02-02T15:12:02.137Z,100011.31
2023-02-02T15:14:33.890Z,100012.52
2023-02-02T15:17:41.596Z,100014.27
2023-02-02T15:20:21.198Z,100019.27
2023-02-02T15:22:56.398Z,100020.65
2023-02-02T15:26:03.641Z,100025.81
2023-02-02T15:28:44.861Z,100026.38
2023-02-02T15:31:28.691Z,100030.98
2023-02-02T15:33:59.712Z,100032.67
2023-02-02T15:36:31.321Z,100030.34
2023-02-02T15:39:08.786Z,100030.96
2023-02-02T15:41:38.271Z,100030.83
2023-02-02T15:44:26.830Z,100033.48
2023-02-02T15:46:56.754Z,100036.67
2023-02-02T15:49:34.918Z,100039.02
2023-02-02T15:52:11.867Z,100041.32
2023-02-02T15:54:53.423Z,100039.06
2023-02-02T15:57:37.993Z,100040.77
2023-02-02T16:00:26.754Z,100045.92
2023-02-02T16:03:01.196Z,100047.88
2023-02-02T16:05:29.841Z,100047.11
2023-02-02T16:08:06.075Z,100047.97
2023-02-02T16:10:34.921Z,100046.73
2023-02-02T16:13:03.858Z,100048.66
2023-02-02T16:15:33.493Z,100051.56
2023-02-02T16:18:11.947Z,100053.77
2023-02-02T16:20:40.357Z,100057.01
2023-02-02T16:23:14.009Z,100060.08
2023-02-02T16:25:47.668Z,100060.77
2023-02-02T16:28:17.986Z,100063.38
2023-02-02T16:30:47.035Z,100063.32
2023-02-02T16:33:35.929Z,100064.80
2023-02-02T16:36:26.689Z,100068.83
2023-02-02T16:38:58.169Z,100074.45
2023-02-02T16:41:37.212Z,100079.48
2023-02-02T16:44:40.119Z,100079.77
2023-02-02T16:47:16.867Z,100081.23
2023-02-02T16:49:45.335Z,100084.06
2023-02-02T16:52:16.274Z,100083.90
2023-02-02T16:55:11.189Z,100084.23
2023-02-02T16:57:39.843Z,100091.35
2023-02-02T17:00:18.440Z,100094.77
2023-02-02T17:02:48.675Z,100092.14
2023-02-02T17:05:29.454Z,100094.16
2023-02-02T17:08:00.838Z,100092.27
2023-02-02T17:10:42.576Z,100095.86
2023-02-02T17:13:35.050Z,100093.80
2023-02-02T17:16:13.337Z,100099.38
2023-02-02T17:18:42.138Z,100098.02
2023-02-02T17:21:14.418Z,100096.86
2023-02-02T17:23:43.271Z,100093.92
2023-02-02T17:26:12.479Z,100093.40
2023-02-02T17:28:41.541Z,100098.03
2023-02-02T17:31:12.398Z,100102.29
2023-02-02T17:33:41.257Z,100103.91
2023-02-02T17:36:10.886Z,100096.16
2023-02-02T17:38:39.899Z,100098.91
2023-02-02T17:41:10.432Z,100102.27
2023-02-02T17:43:43.053Z,100105.17
2023-02-02T17:46:14.378Z,100108.02
2023-02-02T17:48:44.535Z,100114.52
2023-02-02T17:51:15.330Z,100113.08
2023-02-02T17:53:44.738Z,100114.67
2023-02-02T17:56:13.396Z,100111.83
2023-02-02T17:58:42.284Z,100113.74
2023-02-02T18:01:11.864Z,100115.45
2023-02-02T18:03:41.316Z,100120.86
2023-02-02T18:06:10.525Z,100117.48
2023-02-02T18:08:39.465Z,100118.48
2023-02-02T18:11:13.173Z,100119.69
2023-02-02T18:13:43.170Z,100121.92
2023-02-02T18:16:12.328Z,100123.34
2023-02-02T18:18:40.974Z,100124.83
2023-02-02T18:21:10.479Z,100127.23
2023-02-02T18:23:38.810Z,100129.81
2023-02-02T18:26:14.534Z,100129.77
2023-02-02T18:28:43.047Z,100134.59
2023-02-02T18:31:12.773Z,100132.67
2023-02-02T18:33:41.991Z,100131.77
2023-02-02T18:36:20.061Z,100135.05
2023-02-02T18:38:51.244Z,100135.02
2023-02-02T18:41:21.818Z,100133.20
2023-02-02T18:43:53.370Z,100133.92
2023-02-02T18:46:21.960Z,100134.91
2023-02-02T18:48:50.767Z,100136.27
2023-02-02T18:51:22.218Z,100137.81
2023-02-02T18:53:50.850Z,100130.98
2023-02-02T18:56:19.551Z,100136.00
2023-02-02T18:58:48.409Z,100132.56
2023-02-02T19:01:18.493Z,100136.86
2023-02-02T19:03:48.486Z,100138.06
2023-02-02T19:06:36.502Z,100140.13
2023-02-02T19:09:06.193Z,100141.20
2023-02-02T19:11:39.431Z,100142.98
2023-02-02T19:14:20.046Z,100144.18
2023-02-02T19:16:48.650Z,100147.48
2023-02-02T19:19:20.629Z,100151.70
2023-02-02T19:21:49.340Z,100150.52
2023-02-02T19:24:17.780Z,100146.59
2023-02-02T19:26:47.484Z,100145.63
2023-02-02T19:29:23.697Z,100149.86
2023-02-02T19:31:54.186Z,100148.48
2023-02-02T19:34:23.309Z,100148.48
2023-02-02T19:36:52.457Z,100151.19
2023-02-02T19:39:34.119Z,100150.62
2023-02-02T19:42:02.690Z,100149.42
2023-02-02T19:44:34.391Z,100148.80
2023-02-02T19:47:24.516Z,100146.55
2023-02-02T19:49:53.580Z,100149.05
2023-02-02T19:52:24.776Z,100152.39
2023-02-02T19:54:53.518Z,100155.05
2023-02-02T19:57:37.007Z,100154.38
2023-02-02T20:00:27.472Z,100151.73
2023-02-02T20:03:23.107Z,100152.86
2023-02-02T20:05:52.276Z,100151.77
2023-02-02T20:08:31.962Z,100154.50
2023-02-02T20:11:01.436Z,100153.55
2023-02-02T20:13:35.838Z,100153.27
2023-02-02T20:16:05.314Z,100154.54
2023-02-02T20:18:42.982Z,100154.30
2023-02-02T20:21:38.166Z,100155.98
2023-02-02T20:24:37.464Z,100153.85
2023-02-02T20:27:18.653Z,100156.25
2023-02-02T20:29:48.748Z,100156.14
2023-02-02T20:32:44.247Z,100156.94
2023-02-02T20:35:23.536Z,100158.91
2023-02-02T20:37:52.378Z,100158.74
2023-02-02T20:40:20.963Z,100158.31
2023-02-02T20:42:49.928Z,100154.45
2023-02-02T20:45:21.930Z,100156.86
2023-02-02T20:47:51.019Z,100155.36
2023-02-02T20:50:20.939Z,100156.77
2023-02-02T20:52:51.277Z,100152.34
2023-02-02T20:55:19.927Z,100152.88
2023-02-02T20:57:52.607Z,100155.61
2023-02-02T21:00:27.540Z,100156.65
2023-02-02T21:02:57.257Z,100157.73
2023-02-02T21:05:26.299Z,100155.73
2023-02-02T21:07:56.938Z,100155.13
2023-02-02T21:10:26.446Z,100157.75
2023-02-02T21:12:56.078Z,100154.04
2023-02-02T21:15:26.623Z,100159.23
2023-02-02T21:17:56.088Z,100161.52
2023-02-02T21:20:25.428Z,100159.02
2023-02-02T21:22:56.364Z,100165.56
2023-02-02T21:25:25.275Z,100166.11
2023-02-02T21:28:00.426Z,100174.30
2023-02-02T21:30:29.568Z,100175.13
2023-02-02T21:32:58.738Z,100176.06
2023-02-02T21:35:27.269Z,100176.73
2023-02-02T21:37:57.993Z,100177.63
2023-02-02T21:40:30.400Z,100184.87
2023-02-02T21:42:59.999Z,100184.80
2023-02-02T21:45:36.874Z,100189.31
2023-02-02T21:48:35.411Z,100191.64
2023-02-02T21:51:27.689Z,100193.96
2023-02-02T21:53:56.274Z,100196.51
2023-02-02T21:56:34.178Z,100196.53
2023-02-02T21:59:17.468Z,100197.25
2023-02-02T22:01:54.589Z,100198.94
2023-02-02T22:04:28.561Z,100199.52
2023-02-02T22:07:01.660Z,100206.37
2023-02-02T22:09:38.450Z,100208.37
2023-02-02T22:12:21.048Z,100209.65
2023-02-02T22:14:51.167Z,100209.39
2023-02-02T22:17:49.521Z,100212.48
2023-02-02T22:20:33.250Z,100209.67
2023-02-02T22:23:02.585Z,100210.36
2023-02-02T22:25:36.303Z,100208.40
2023-02-02T22:28:23.041Z,100205.58
2023-02-02T22:30:52.704Z,100203.45
2023-02-02T22:33:21.818Z,100205.56
2023-02-02T22:35:50.256Z,100207.50
2023-02-02T22:38:20.580Z,100207.38
2023-02-02T22:40:50.129Z,100207.56
2023-02-02T22:43:19.338Z,100207.71
2023-02-02T22:45:47.871Z,100204.52
2023-02-02T22:48:17.109Z,100199.10
2023-02-02T22:50:46.060Z,100199.83
2023-02-02T22:53:15.684Z,100200.17
2023-02-02T22:55:44.502Z,100201.63
2023-02-02T22:58:13.068Z,100199.60
2023-02-02T23:00:41.930Z,100204.20
2023-02-02T23:03:11.039Z,100204.96
2023-02-02T23:05:39.919Z,100204.54
2023-02-02T23:08:08.262Z,100205.67
2023-02-02T23:10:56.501Z,100203.73
2023-02-02T23:13:24.967Z,100205.45
2023-02-02T23:15:53.547Z,100202.89
2023-02-02T23:18:22.400Z,100204.70
2023-02-02T23:20:50.802Z,100209.90
2023-02-02T23:23:19.258Z,100218.73
2023-02-02T23:25:47.911Z,100212.70
2023-02-02T23:28:16.551Z,100219.61
2023-02-02T23:30:45.083Z,100219.20
2023-02-02T23:33:13.491Z,100219.08
2023-02-02T23:35:42.181Z,100222.80
2023-02-02T23:38:10.974Z,100224.24
2023-02-02T23:40:39.365Z,100221.31
2023-02-02T23:43:07.729Z,100226.13
2023-02-02T23:45:36.728Z,100225.52
2023-02-02T23:48:06.249Z,100222.63
2023-02-02T23:50:37.842Z,100222.81
2023-02-02T23:53:06.967Z,100225.86
2023-02-02T23:55:37.300Z,100225.67
2023-02-02T23:58:06.293Z,100226.40
